sensor_id;sensor_type;location;lat;lon;timestamp;pressure;altitude;pressure_sealevel;temperature;humidity
47913;BME280;33676;51.006;17.180;2023-04-22T00:00:26;100152.25;;;8.95;65.68
47913;BME280;33676;51.006;17.180;2023-04-22T00:03:15;100150.95;;;8.86;65.90
47913;BME280;33676;51.006;17.180;2023-04-22T00:05:44;100151.80;;;8.80;66.11
47913;BME280;33676;51.006;17.180;2023-04-22T00:08:13;100147.11;;;8.75;66.16
47913;BME280;33676;51.006;17.180;2023-04-22T00:10:41;100149.29;;;8.71;66.29
47913;BME280;33676;51.006;17.180;2023-04-22T00:13:10;100146.84;;;8.69;66.24
47913;BME280;33676;51.006;17.180;2023-04-22T00:17:39;100149.39;;;8.67;66.57
47913;BME280;33676;51.006;17.180;2023-04-22T00:20:10;100146.60;;;8.60;66.70
47913;BME280;33676;51.006;17.180;2023-04-22T00:22:39;100147.31;;;8.55;66.79
47913;BME280;33676;51.006;17.180;2023-04-22T00:25:08;100146.77;;;8.51;66.85
47913;BME280;33676;51.006;17.180;2023-04-22T00:27:36;100146.23;;;8.46;67.09
47913;BME280;33676;51.006;17.180;2023-04-22T00:30:05;100144.70;;;8.41;67.17
47913;BME280;33676;51.006;17.180;2023-04-22T00:32:34;100145.83;;;8.37;67.31
47913;BME280;33676;51.006;17.180;2023-04-22T00:35:03;100142.25;;;8.33;67.38
47913;BME280;33676;51.006;17.180;2023-04-22T00:37:32;100138.08;;;8.30;67.45
47913;BME280;33676;51.006;17.180;2023-04-22T00:40:01;100139.18;;;8.27;67.51
47913;BME280;33676;51.006;17.180;2023-04-22T00:42:29;100139.31;;;8.23;67.47
47913;BME280;33676;51.006;17.180;2023-04-22T00:44:59;100138.77;;;8.18;67.69
47913;BME280;33676;51.006;17.180;2023-04-22T00:47:28;100140.77;;;8.12;67.97
47913;BME280;33676;51.006;17.180;2023-04-22T00:49:57;100149.74;;;8.06;68.03
47913;BME280;33676;51.006;17.180;2023-04-22T00:52:26;100154.40;;;7.99;68.18
47913;BME280;33676;51.006;17.180;2023-04-22T00:54:54;100144.48;;;7.86;68.26
47913;BME280;33676;51.006;17.180;2023-04-22T00:57:23;100146.44;;;7.73;68.32
47913;BME280;33676;51.006;17.180;2023-04-22T00:59:52;100152.30;;;7.61;68.62
47913;BME280;33676;51.006;17.180;2023-04-22T01:02:20;100150.30;;;7.54;68.97
47913;BME280;33676;51.006;17.180;2023-04-22T01:04:50;100150.33;;;7.49;69.12
47913;BME280;33676;51.006;17.180;2023-04-22T01:07:22;100150.59;;;7.43;69.44
47913;BME280;33676;51.006;17.180;2023-04-22T01:09:51;100147.72;;;7.39;69.48
47913;BME280;33676;51.006;17.180;2023-04-22T01:12:19;100147.67;;;7.34;69.71
47913;BME280;33676;51.006;17.180;2023-04-22T01:14:48;100152.23;;;7.26;69.90
47913;BME280;33676;51.006;17.180;2023-04-22T01:17:17;100150.41;;;7.17;69.84
47913;BME280;33676;51.006;17.180;2023-04-22T01:19:47;100148.08;;;7.10;69.97
47913;BME280;33676;51.006;17.180;2023-04-22T01:22:16;100147.59;;;7.05;70.25
47913;BME280;33676;51.006;17.180;2023-04-22T01:24:46;100148.35;;;6.98;70.43
47913;BME280;33676;51.006;17.180;2023-04-22T01:27:14;100149.67;;;6.91;70.65
47913;BME280;33676;51.006;17.180;2023-04-22T01:29:43;100153.27;;;6.86;70.69
47913;BME280;33676;51.006;17.180;2023-04-22T01:32:12;100146.33;;;6.81;70.92
47913;BME280;33676;51.006;17.180;2023-04-22T01:34:41;100147.02;;;6.76;71.05
47913;BME280;33676;51.006;17.180;2023-04-22T01:37:09;100143.70;;;6.71;71.30
47913;BME280;33676;51.006;17.180;2023-04-22T01:39:38;100148.29;;;6.67;71.61
47913;BME280;33676;51.006;17.180;2023-04-22T01:42:08;100144.24;;;6.62;71.87
47913;BME280;33676;51.006;17.180;2023-04-22T01:44:36;100144.79;;;6.56;71.82
47913;BME280;33676;51.006;17.180;2023-04-22T01:47:05;100142.35;;;6.51;72.08
47913;BME280;33676;51.006;17.180;2023-04-22T01:49:33;100144.87;;;6.47;72.32
47913;BME280;33676;51.006;17.180;2023-04-22T01:52:02;100143.70;;;6.43;72.23
47913;BME280;33676;51.006;17.180;2023-04-22T01:54:31;100141.83;;;6.40;72.38
47913;BME280;33676;51.006;17.180;2023-04-22T01:56:59;100146.91;;;6.37;72.44
47913;BME280;33676;51.006;17.180;2023-04-22T01:59:28;100145.82;;;6.32;72.69
47913;BME280;33676;51.006;17.180;2023-04-22T02:01:56;100139.93;;;6.29;72.85
47913;BME280;33676;51.006;17.180;2023-04-22T02:04:25;100139.23;;;6.24;72.99
47913;BME280;33676;51.006;17.180;2023-04-22T02:06:53;100140.56;;;6.19;73.14
47913;BME280;33676;51.006;17.180;2023-04-22T02:09:21;100136.13;;;6.15;73.21
47913;BME280;33676;51.006;17.180;2023-04-22T02:11:50;100129.63;;;6.11;73.30
47913;BME280;33676;51.006;17.180;2023-04-22T02:14:18;100127.11;;;6.07;73.54
47913;BME280;33676;51.006;17.180;2023-04-22T02:16:47;100123.84;;;6.04;73.68
47913;BME280;33676;51.006;17.180;2023-04-22T02:19:15;100125.84;;;5.99;73.66
47913;BME280;33676;51.006;17.180;2023-04-22T02:21:43;100123.36;;;5.97;73.69
47913;BME280;33676;51.006;17.180;2023-04-22T02:24:12;100125.42;;;5.94;73.77
47913;BME280;33676;51.006;17.180;2023-04-22T02:26:40;100119.29;;;5.92;73.98
47913;BME280;33676;51.006;17.180;2023-04-22T02:29:10;100114.16;;;5.91;74.11
47913;BME280;33676;51.006;17.180;2023-04-22T02:31:38;100113.23;;;5.90;74.27
47913;BME280;33676;51.006;17.180;2023-04-22T02:34:07;100116.62;;;5.87;74.28
47913;BME280;33676;51.006;17.180;2023-04-22T02:36:35;100117.83;;;5.85;74.50
47913;BME280;33676;51.006;17.180;2023-04-22T02:39:04;100117.73;;;5.81;74.49
47913;BME280;33676;51.006;17.180;2023-04-22T02:41:33;100113.03;;;5.75;74.50
47913;BME280;33676;51.006;17.180;2023-04-22T02:44:01;100113.52;;;5.71;74.69
47913;BME280;33676;51.006;17.180;2023-04-22T02:46:30;100114.97;;;5.67;74.83
47913;BME280;33676;51.006;17.180;2023-04-22T02:48:58;100114.74;;;5.62;74.89
47913;BME280;33676;51.006;17.180;2023-04-22T02:51:26;100117.06;;;5.58;75.06
47913;BME280;33676;51.006;17.180;2023-04-22T02:53:55;100116.83;;;5.53;75.24
47913;BME280;33676;51.006;17.180;2023-04-22T02:56:23;100111.22;;;5.48;75.41
47913;BME280;33676;51.006;17.180;2023-04-22T02:58:53;100107.83;;;5.44;75.53
47913;BME280;33676;51.006;17.180;2023-04-22T03:01:22;100109.75;;;5.41;75.69
47913;BME280;33676;51.006;17.180;2023-04-22T03:03:50;100105.25;;;5.38;75.79
47913;BME280;33676;51.006;17.180;2023-04-22T03:06:20;100107.20;;;5.34;75.92
47913;BME280;33676;51.006;17.180;2023-04-22T03:08:48;100111.87;;;5.31;75.89
47913;BME280;33676;51.006;17.180;2023-04-22T03:11:17;100111.59;;;5.27;75.92
47913;BME280;33676;51.006;17.180;2023-04-22T03:13:45;100109.40;;;5.23;75.79
47913;BME280;33676;51.006;17.180;2023-04-22T03:16:23;100108.77;;;5.19;76.25
47913;BME280;33676;51.006;17.180;2023-04-22T03:18:51;100108.52;;;5.15;75.98
47913;BME280;33676;51.006;17.180;2023-04-22T03:21:20;100109.98;;;5.11;76.27
47913;BME280;33676;51.006;17.180;2023-04-22T03:23:48;100107.40;;;5.08;76.33
47913;BME280;33676;51.006;17.180;2023-04-22T03:26:17;100108.73;;;5.05;76.47
47913;BME280;33676;51.006;17.180;2023-04-22T03:28:45;100107.77;;;5.04;76.72
47913;BME280;33676;51.006;17.180;2023-04-22T03:31:14;100106.94;;;5.03;76.66
47913;BME280;33676;51.006;17.180;2023-04-22T03:33:42;100105.66;;;5.02;76.85
47913;BME280;33676;51.006;17.180;2023-04-22T03:36:10;100103.88;;;4.99;76.80
47913;BME280;33676;51.006;17.180;2023-04-22T03:38:39;100103.08;;;4.98;77.09
47913;BME280;33676;51.006;17.180;2023-04-22T03:41:08;100104.94;;;4.96;77.09
47913;BME280;33676;51.006;17.180;2023-04-22T03:43:36;100105.66;;;4.95;77.04
47913;BME280;33676;51.006;17.180;2023-04-22T03:46:06;100099.88;;;4.93;77.33
47913;BME280;33676;51.006;17.180;2023-04-22T03:48:34;100104.21;;;4.93;77.57
47913;BME280;33676;51.006;17.180;2023-04-22T03:51:03;100101.92;;;4.94;77.60
47913;BME280;33676;51.006;17.180;2023-04-22T03:53:31;100102.64;;;4.94;77.53
47913;BME280;33676;51.006;17.180;2023-04-22T03:55:59;100099.29;;;4.92;77.59
47913;BME280;33676;51.006;17.180;2023-04-22T03:58:28;100103.61;;;4.89;77.52
47913;BME280;33676;51.006;17.180;2023-04-22T04:00:56;100105.27;;;4.87;77.64
47913;BME280;33676;51.006;17.180;2023-04-22T04:03:24;100106.00;;;4.84;77.67
47913;BME280;33676;51.006;17.180;2023-04-22T04:05:58;100103.50;;;4.79;77.78
47913;BME280;33676;51.006;17.180;2023-04-22T04:08:26;100103.92;;;4.74;77.88
47913;BME280;33676;51.006;17.180;2023-04-22T04:10:55;100108.39;;;4.72;78.08
47913;BME280;33676;51.006;17.180;2023-04-22T04:13:23;100103.66;;;4.70;78.10
47913;BME280;33676;51.006;17.180;2023-04-22T04:15:52;100107.60;;;4.71;78.37
47913;BME280;33676;51.006;17.180;2023-04-22T04:18:21;100103.19;;;4.72;78.67
47913;BME280;33676;51.006;17.180;2023-04-22T04:20:50;100099.24;;;4.75;78.93
47913;BME280;33676;51.006;17.180;2023-04-22T04:23:19;100103.15;;;4.76;79.11
47913;BME280;33676;51.006;17.180;2023-04-22T04:25:47;100099.80;;;4.77;79.05
47913;BME280;33676;51.006;17.180;2023-04-22T04:28:16;100102.83;;;4.79;79.21
47913;BME280;33676;51.006;17.180;2023-04-22T04:30:45;100103.89;;;4.81;79.14
47913;BME280;33676;51.006;17.180;2023-04-22T04:33:13;100098.98;;;4.85;79.50
47913;BME280;33676;51.006;17.180;2023-04-22T04:35:44;100104.45;;;4.90;79.61
47913;BME280;33676;51.006;17.180;2023-04-22T04:38:13;100101.65;;;4.93;79.71
47913;BME280;33676;51.006;17.180;2023-04-22T04:40:41;100106.30;;;5.00;79.90
47913;BME280;33676;51.006;17.180;2023-04-22T04:43:10;100108.23;;;5.05;79.84
47913;BME280;33676;51.006;17.180;2023-04-22T04:45:40;100111.64;;;5.12;80.03
47913;BME280;33676;51.006;17.180;2023-04-22T04:48:17;100110.43;;;5.18;80.12
47913;BME280;33676;51.006;17.180;2023-04-22T04:50:47;100110.59;;;5.23;80.40
47913;BME280;33676;51.006;17.180;2023-04-22T04:53:15;100115.55;;;5.30;80.41
47913;BME280;33676;51.006;17.180;2023-04-22T04:55:44;100118.49;;;5.37;80.50
47913;BME280;33676;51.006;17.180;2023-04-22T04:58:12;100121.60;;;5.43;80.50
47913;BME280;33676;51.006;17.180;2023-04-22T05:00:41;100116.59;;;5.49;80.50
47913;BME280;33676;51.006;17.180;2023-04-22T05:03:09;100118.19;;;5.54;80.80
47913;BME280;33676;51.006;17.180;2023-04-22T05:05:38;100121.01;;;5.59;80.93
47913;BME280;33676;51.006;17.180;2023-04-22T05:08:07;100116.63;;;5.65;81.07
47913;BME280;33676;51.006;17.180;2023-04-22T05:10:35;100121.73;;;5.73;81.11
47913;BME280;33676;51.006;17.180;2023-04-22T05:13:03;100118.61;;;5.80;80.99
47913;BME280;33676;51.006;17.180;2023-04-22T05:15:32;100120.20;;;5.89;81.39
47913;BME280;33676;51.006;17.180;2023-04-22T05:18:01;100117.56;;;5.98;81.64
47913;BME280;33676;51.006;17.180;2023-04-22T05:20:29;100118.04;;;6.07;81.58
47913;BME280;33676;51.006;17.180;2023-04-22T05:23:01;100123.22;;;6.16;81.99
47913;BME280;33676;51.006;17.180;2023-04-22T05:25:30;100121.20;;;6.26;82.00
47913;BME280;33676;51.006;17.180;2023-04-22T05:27:58;100119.72;;;6.36;82.06
47913;BME280;33676;51.006;17.180;2023-04-22T05:30:27;100121.15;;;6.46;82.05
47913;BME280;33676;51.006;17.180;2023-04-22T05:32:55;100122.36;;;6.57;82.28
47913;BME280;33676;51.006;17.180;2023-04-22T05:35:24;100124.70;;;6.70;82.55
47913;BME280;33676;51.006;17.180;2023-04-22T05:37:52;100126.90;;;6.81;82.67
47913;BME280;33676;51.006;17.180;2023-04-22T05:40:21;100127.00;;;6.92;82.78
47913;BME280;33676;51.006;17.180;2023-04-22T05:42:49;100124.61;;;7.02;82.67
47913;BME280;33676;51.006;17.180;2023-04-22T05:45:18;100124.83;;;7.12;82.58
47913;BME280;33676;51.006;17.180;2023-04-22T05:47:47;100124.37;;;7.24;82.66
47913;BME280;33676;51.006;17.180;2023-04-22T05:50:15;100121.76;;;7.37;82.75
47913;BME280;33676;51.006;17.180;2023-04-22T05:52:44;100119.63;;;7.48;82.59
47913;BME280;33676;51.006;17.180;2023-04-22T05:55:12;100116.14;;;7.61;82.60
47913;BME280;33676;51.006;17.180;2023-04-22T05:57:41;100114.60;;;7.73;82.88
47913;BME280;33676;51.006;17.180;2023-04-22T06:00:10;100117.92;;;7.85;82.68
47913;BME280;33676;51.006;17.180;2023-04-22T06:02:38;100115.23;;;7.96;82.54
47913;BME280;33676;51.006;17.180;2023-04-22T06:05:08;100116.42;;;8.09;82.45
47913;BME280;33676;51.006;17.180;2023-04-22T06:07:37;100121.31;;;8.21;82.33
47913;BME280;33676;51.006;17.180;2023-04-22T06:10:06;100118.89;;;8.33;82.42
47913;BME280;33676;51.006;17.180;2023-04-22T06:12:35;100125.23;;;8.45;82.50
47913;BME280;33676;51.006;17.180;2023-04-22T06:15:04;100129.61;;;8.56;82.47
47913;BME280;33676;51.006;17.180;2023-04-22T06:17:33;100128.82;;;8.70;82.54
47913;BME280;33676;51.006;17.180;2023-04-22T06:20:02;100127.33;;;8.83;82.42
47913;BME280;33676;51.006;17.180;2023-04-22T06:22:30;100125.11;;;8.96;82.19
47913;BME280;33676;51.006;17.180;2023-04-22T06:24:59;100128.10;;;9.10;81.92
47913;BME280;33676;51.006;17.180;2023-04-22T06:27:28;100126.29;;;9.25;81.86
47913;BME280;33676;51.006;17.180;2023-04-22T06:29:57;100121.51;;;9.40;81.81
47913;BME280;33676;51.006;17.180;2023-04-22T06:32:25;100121.44;;;9.54;81.48
47913;BME280;33676;51.006;17.180;2023-04-22T06:34:54;100121.20;;;9.69;81.10
47913;BME280;33676;51.006;17.180;2023-04-22T06:42:40;100120.72;;;10.13;80.47
47913;BME280;33676;51.006;17.180;2023-04-22T06:45:09;100124.15;;;10.27;80.43
47913;BME280;33676;51.006;17.180;2023-04-22T06:47:40;100121.02;;;10.40;80.08
47913;BME280;33676;51.006;17.180;2023-04-22T06:50:48;100120.38;;;10.56;79.86
47913;BME280;33676;51.006;17.180;2023-04-22T06:53:16;100127.39;;;10.68;79.85
47913;BME280;33676;51.006;17.180;2023-04-22T06:55:44;100126.73;;;10.80;79.69
47913;BME280;33676;51.006;17.180;2023-04-22T06:58:13;100128.61;;;10.91;79.17
47913;BME280;33676;51.006;17.180;2023-04-22T07:00:41;100121.23;;;10.99;78.64
47913;BME280;33676;51.006;17.180;2023-04-22T07:03:10;100121.13;;;11.09;78.62
47913;BME280;33676;51.006;17.180;2023-04-22T07:05:39;100123.39;;;11.20;78.48
47913;BME280;33676;51.006;17.180;2023-04-22T07:08:07;100122.23;;;11.30;78.27
47913;BME280;33676;51.006;17.180;2023-04-22T07:10:36;100125.36;;;11.40;78.32
47913;BME280;33676;51.006;17.180;2023-04-22T07:13:04;100126.46;;;11.52;78.25
47913;BME280;33676;51.006;17.180;2023-04-22T07:15:33;100124.43;;;11.59;77.64
47913;BME280;33676;51.006;17.180;2023-04-22T07:18:01;100125.77;;;11.68;77.67
47913;BME280;33676;51.006;17.180;2023-04-22T07:20:30;100124.19;;;11.79;77.49
47913;BME280;33676;51.006;17.180;2023-04-22T07:22:58;100129.16;;;11.86;77.17
47913;BME280;33676;51.006;17.180;2023-04-22T07:25:27;100128.22;;;11.96;77.11
47913;BME280;33676;51.006;17.180;2023-04-22T07:27:56;100127.33;;;12.05;77.16
47913;BME280;33676;51.006;17.180;2023-04-22T07:30:25;100127.58;;;12.17;77.07
47913;BME280;33676;51.006;17.180;2023-04-22T07:32:53;100130.63;;;12.28;77.31
47913;BME280;33676;51.006;17.180;2023-04-22T07:35:22;100129.09;;;12.39;77.21
47913;BME280;33676;51.006;17.180;2023-04-22T07:37:51;100126.35;;;12.48;76.92
47913;BME280;33676;51.006;17.180;2023-04-22T07:40:20;100129.00;;;12.62;76.84
47913;BME280;33676;51.006;17.180;2023-04-22T07:42:48;100127.55;;;12.74;76.69
47913;BME280;33676;51.006;17.180;2023-04-22T07:45:17;100131.13;;;12.89;76.87
47913;BME280;33676;51.006;17.180;2023-04-22T07:47:46;100132.38;;;13.02;76.81
47913;BME280;33676;51.006;17.180;2023-04-22T07:50:15;100131.09;;;13.16;76.41
47913;BME280;33676;51.006;17.180;2023-04-22T07:52:43;100131.52;;;13.29;76.38
47913;BME280;33676;51.006;17.180;2023-04-22T07:55:12;100134.91;;;13.42;76.25
47913;BME280;33676;51.006;17.180;2023-04-22T07:57:40;100133.01;;;13.55;75.95
47913;BME280;33676;51.006;17.180;2023-04-22T08:00:09;100129.60;;;13.67;75.86
47913;BME280;33676;51.006;17.180;2023-04-22T08:02:38;100123.94;;;13.80;75.62
47913;BME280;33676;51.006;17.180;2023-04-22T08:07:37;100121.73;;;14.05;75.38
47913;BME280;33676;51.006;17.180;2023-04-22T08:10:06;100123.38;;;14.17;75.18
47913;BME280;33676;51.006;17.180;2023-04-22T08:15:29;100123.55;;;14.45;75.21
47913;BME280;33676;51.006;17.180;2023-04-22T08:17:58;100121.08;;;14.56;74.78
47913;BME280;33676;51.006;17.180;2023-04-22T08:20:26;100119.23;;;14.66;74.75
47913;BME280;33676;51.006;17.180;2023-04-22T08:22:55;100122.63;;;14.80;74.80
47913;BME280;33676;51.006;17.180;2023-04-22T08:25:44;100119.70;;;14.93;74.63
47913;BME280;33676;51.006;17.180;2023-04-22T08:28:14;100119.36;;;15.07;74.37
47913;BME280;33676;51.006;17.180;2023-04-22T08:30:45;100122.00;;;15.21;74.51
47913;BME280;33676;51.006;17.180;2023-04-22T08:36:19;100117.86;;;15.57;74.42
47913;BME280;33676;51.006;17.180;2023-04-22T08:38:57;100111.58;;;15.72;74.30
47913;BME280;33676;51.006;17.180;2023-04-22T08:41:25;100112.20;;;15.88;73.61
47913;BME280;33676;51.006;17.180;2023-04-22T08:43:54;100110.92;;;16.06;73.37
47913;BME280;33676;51.006;17.180;2023-04-22T08:46:24;100111.91;;;16.25;72.86
47913;BME280;33676;51.006;17.180;2023-04-22T08:49:03;100112.25;;;16.45;72.21
47913;BME280;33676;51.006;17.180;2023-04-22T08:51:36;100108.90;;;16.67;71.91
47913;BME280;33676;51.006;17.180;2023-04-22T08:54:07;100109.89;;;16.85;71.38
47913;BME280;33676;51.006;17.180;2023-04-22T08:56:43;100110.09;;;17.05;71.49
47913;BME280;33676;51.006;17.180;2023-04-22T08:59:12;100109.96;;;17.26;70.88
47913;BME280;33676;51.006;17.180;2023-04-22T09:01:41;100111.41;;;17.45;70.86
47913;BME280;33676;51.006;17.180;2023-04-22T09:04:15;100108.77;;;17.67;70.47
47913;BME280;33676;51.006;17.180;2023-04-22T09:09:57;100105.13;;;18.17;69.76
47913;BME280;33676;51.006;17.180;2023-04-22T09:12:25;100104.44;;;18.40;69.48
47913;BME280;33676;51.006;17.180;2023-04-22T09:15:15;100100.96;;;18.66;69.13
47913;BME280;33676;51.006;17.180;2023-04-22T09:17:45;100101.52;;;18.90;68.72
47913;BME280;33676;51.006;17.180;2023-04-22T09:20:17;100100.02;;;19.12;68.36
47913;BME280;33676;51.006;17.180;2023-04-22T09:22:48;100101.48;;;19.37;68.02
47913;BME280;33676;51.006;17.180;2023-04-22T09:25:20;100097.02;;;19.59;67.67
47913;BME280;33676;51.006;17.180;2023-04-22T09:27:55;100096.48;;;19.82;67.56
47913;BME280;33676;51.006;17.180;2023-04-22T09:30:34;100093.80;;;20.07;67.02
47913;BME280;33676;51.006;17.180;2023-04-22T09:33:06;100094.49;;;20.27;66.68
47913;BME280;33676;51.006;17.180;2023-04-22T09:35:38;100095.90;;;20.45;66.26
47913;BME280;33676;51.006;17.180;2023-04-22T09:38:09;100090.64;;;20.61;65.70
47913;BME280;33676;51.006;17.180;2023-04-22T09:40:42;100086.55;;;20.79;64.99
47913;BME280;33676;51.006;17.180;2023-04-22T09:43:13;100087.55;;;20.98;64.88
47913;BME280;33676;51.006;17.180;2023-04-22T09:45:44;100087.19;;;21.20;64.05
47913;BME280;33676;51.006;17.180;2023-04-22T09:48:18;100083.49;;;21.41;63.55
47913;BME280;33676;51.006;17.180;2023-04-22T09:50:49;100079.70;;;21.65;62.66
47913;BME280;33676;51.006;17.180;2023-04-22T09:53:26;100079.36;;;21.85;62.65
47913;BME280;33676;51.006;17.180;2023-04-22T09:55:55;100077.99;;;22.11;62.20
47913;BME280;33676;51.006;17.180;2023-04-22T09:58:23;100078.38;;;22.34;61.46
47913;BME280;33676;51.006;17.180;2023-04-22T10:00:57;100074.66;;;22.63;61.50
47913;BME280;33676;51.006;17.180;2023-04-22T10:03:31;100074.46;;;22.93;60.79
47913;BME280;33676;51.006;17.180;2023-04-22T10:06:00;100075.02;;;23.20;60.48
47913;BME280;33676;51.006;17.180;2023-04-22T10:08:29;100075.73;;;23.49;60.34
47913;BME280;33676;51.006;17.180;2023-04-22T10:10:57;100078.30;;;23.77;60.00
47913;BME280;33676;51.006;17.180;2023-04-22T10:13:26;100075.06;;;24.03;59.27
47913;BME280;33676;51.006;17.180;2023-04-22T10:15:55;100074.08;;;24.28;58.18
47913;BME280;33676;51.006;17.180;2023-04-22T10:18:26;100075.69;;;24.49;56.94
47913;BME280;33676;51.006;17.180;2023-04-22T10:20:56;100075.64;;;24.59;55.88
47913;BME280;33676;51.006;17.180;2023-04-22T10:23:31;100070.80;;;24.81;55.59
47913;BME280;33676;51.006;17.180;2023-04-22T10:25:59;100073.23;;;25.10;55.58
47913;BME280;33676;51.006;17.180;2023-04-22T10:28:28;100065.61;;;25.33;54.53
47913;BME280;33676;51.006;17.180;2023-04-22T10:30:58;100066.62;;;25.50;53.94
47913;BME280;33676;51.006;17.180;2023-04-22T10:36:16;100061.67;;;26.03;52.90
47913;BME280;33676;51.006;17.180;2023-04-22T10:41:31;100052.20;;;26.54;51.95
47913;BME280;33676;51.006;17.180;2023-04-22T10:44:06;100050.66;;;26.82;51.87
47913;BME280;33676;51.006;17.180;2023-04-22T10:49:13;100050.71;;;27.11;50.33
47913;BME280;33676;51.006;17.180;2023-04-22T10:51:58;100049.70;;;27.09;49.82
47913;BME280;33676;51.006;17.180;2023-04-22T10:57:12;100045.59;;;27.50;50.44
47913;BME280;33676;51.006;17.180;2023-04-22T10:59:51;100042.10;;;27.87;50.44
47913;BME280;33676;51.006;17.180;2023-04-22T11:02:23;100041.02;;;28.11;50.13
47913;BME280;33676;51.006;17.180;2023-04-22T11:05:25;100041.83;;;28.36;49.86
47913;BME280;33676;51.006;17.180;2023-04-22T11:08:03;100037.67;;;28.47;48.65
47913;BME280;33676;51.006;17.180;2023-04-22T11:13:04;100027.97;;;28.76;48.25
47913;BME280;33676;51.006;17.180;2023-04-22T11:15:36;100027.38;;;29.06;48.46
47913;BME280;33676;51.006;17.180;2023-04-22T11:18:22;100021.71;;;29.18;48.13
47913;BME280;33676;51.006;17.180;2023-04-22T11:20:52;100017.67;;;29.21;47.77
47913;BME280;33676;51.006;17.180;2023-04-22T11:23:23;100013.80;;;29.26;47.55
47913;BME280;33676;51.006;17.180;2023-04-22T11:25:58;100012.81;;;29.39;47.70
47913;BME280;33676;51.006;17.180;2023-04-22T11:28:27;100009.95;;;29.53;47.67
47913;BME280;33676;51.006;17.180;2023-04-22T11:31:07;100007.78;;;29.80;47.75
47913;BME280;33676;51.006;17.180;2023-04-22T11:33:37;100008.14;;;30.10;47.63
47913;BME280;33676;51.006;17.180;2023-04-22T11:36:10;100004.98;;;30.35;47.39
47913;BME280;33676;51.006;17.180;2023-04-22T11:38:39;100002.39;;;30.55;47.01
47913;BME280;33676;51.006;17.180;2023-04-22T11:41:07;99997.20;;;30.70;46.75
47913;BME280;33676;51.006;17.180;2023-04-22T11:43:46;100000.92;;;30.89;46.46
47913;BME280;33676;51.006;17.180;2023-04-22T11:46:14;99998.11;;;31.05;46.09
47913;BME280;33676;51.006;17.180;2023-04-22T11:48:43;99993.00;;;31.13;45.93
47913;BME280;33676;51.006;17.180;2023-04-22T11:51:11;99993.19;;;31.16;45.57
47913;BME280;33676;51.006;17.180;2023-04-22T11:53:49;99993.73;;;31.16;45.19
47913;BME280;33676;51.006;17.180;2023-04-22T11:56:19;99989.81;;;31.25;45.41
47913;BME280;33676;51.006;17.180;2023-04-22T12:01:40;99989.36;;;31.75;45.79
47913;BME280;33676;51.006;17.180;2023-04-22T12:04:09;99986.40;;;31.99;45.58
47913;BME280;33676;51.006;17.180;2023-04-22T12:06:38;99981.73;;;32.17;45.00
47913;BME280;33676;51.006;17.180;2023-04-22T12:09:08;99980.23;;;32.32;44.80
47913;BME280;33676;51.006;17.180;2023-04-22T12:11:40;99981.59;;;32.33;44.04
47913;BME280;33676;51.006;17.180;2023-04-22T12:14:10;99976.55;;;32.39;44.23
47913;BME280;33676;51.006;17.180;2023-04-22T12:16:41;99983.13;;;32.59;44.62
47913;BME280;33676;51.006;17.180;2023-04-22T12:19:09;99978.95;;;32.75;44.17
47913;BME280;33676;51.006;17.180;2023-04-22T12:21:40;99978.57;;;32.79;43.64
47913;BME280;33676;51.006;17.180;2023-04-22T12:24:09;99975.84;;;32.93;43.40
47913;BME280;33676;51.006;17.180;2023-04-22T12:26:42;99976.02;;;33.14;43.70
47913;BME280;33676;51.006;17.180;2023-04-22T12:29:14;99970.20;;;33.37;43.16
47913;BME280;33676;51.006;17.180;2023-04-22T12:31:44;99968.61;;;33.45;42.86
47913;BME280;33676;51.006;17.180;2023-04-22T12:34:13;99962.50;;;33.48;42.75
47913;BME280;33676;51.006;17.180;2023-04-22T12:36:41;99965.45;;;33.58;42.91
47913;BME280;33676;51.006;17.180;2023-04-22T12:39:10;99960.87;;;33.83;43.20
47913;BME280;33676;51.006;17.180;2023-04-22T12:41:38;99958.98;;;34.09;43.71
47913;BME280;33676;51.006;17.180;2023-04-22T12:44:06;99953.48;;;34.33;43.98
47913;BME280;33676;51.006;17.180;2023-04-22T12:46:38;99950.77;;;34.60;43.98
47913;BME280;33676;51.006;17.180;2023-04-22T12:49:06;99949.48;;;34.78;43.63
47913;BME280;33676;51.006;17.180;2023-04-22T12:51:35;99945.98;;;34.79;42.82
47913;BME280;33676;51.006;17.180;2023-04-22T12:54:03;99937.78;;;34.82;42.32
47913;BME280;33676;51.006;17.180;2023-04-22T12:56:31;99934.33;;;34.78;42.43
47913;BME280;33676;51.006;17.180;2023-04-22T12:59:00;99935.73;;;34.85;42.73
47913;BME280;33676;51.006;17.180;2023-04-22T13:01:30;99930.42;;;35.02;42.69
47913;BME280;33676;51.006;17.180;2023-04-22T13:04:02;99930.33;;;35.21;42.60
47913;BME280;33676;51.006;17.180;2023-04-22T13:06:31;99927.55;;;35.39;42.42
47913;BME280;33676;51.006;17.180;2023-04-22T13:09:00;99923.65;;;35.45;41.89
47913;BME280;33676;51.006;17.180;2023-04-22T13:11:29;99925.06;;;35.50;41.83
47913;BME280;33676;51.006;17.180;2023-04-22T13:13:57;99919.09;;;35.60;41.66
47913;BME280;33676;51.006;17.180;2023-04-22T13:16:25;99913.37;;;35.72;41.71
47913;BME280;33676;51.006;17.180;2023-04-22T13:18:54;99909.01;;;35.87;41.59
47913;BME280;33676;51.006;17.180;2023-04-22T13:21:22;99905.82;;;35.96;41.37
47913;BME280;33676;51.006;17.180;2023-04-22T13:23:51;99900.45;;;36.08;40.96
47913;BME280;33676;51.006;17.180;2023-04-22T13:26:20;99893.05;;;36.06;40.46
47913;BME280;33676;51.006;17.180;2023-04-22T13:28:49;99894.02;;;36.08;40.76
47913;BME280;33676;51.006;17.180;2023-04-22T13:31:17;99892.77;;;36.16;41.18
47913;BME280;33676;51.006;17.180;2023-04-22T13:33:46;99893.58;;;36.33;41.12